Time;durP1;ratioP1;P1;durP2;ratioP2;P2;SDS_P1;SDS_P2;PMS_P1;PMS_P2;Temp;Humidity;BMP_temperature;BMP_pressure;BME280_temperature;BME280_humidity;BME280_pressure;Samples;Min_cycle;Max_cycle;Signal;HPM_P1;HPM_P2
2022/07/22 00:01:53;;;;;;;9.70;6.70;;;18.00;99.90;;;;;;5267985;28;20028;-72
2022/07/22 00:04:24;;;;;;;9.55;7.18;;;18.00;99.90;;;;;;5267876;28;20024;-72
2022/07/22 00:06:55;;;;;;;9.52;6.85;;;18.20;99.90;;;;;;5267496;28;20467;-71
2022/07/22 00:09:26;;;;;;;9.77;7.50;;;18.10;99.90;;;;;;5257324;28;20101;-72
2022/07/22 00:11:57;;;;;;;9.80;7.00;;;17.80;99.90;;;;;;5267633;28;20031;-72
2022/07/22 00:14:27;;;;;;;14.98;9.00;;;17.80;99.90;;;;;;5250626;28;20020;-71
2022/07/22 00:16:58;;;;;;;12.13;7.38;;;17.90;99.90;;;;;;5267602;28;20059;-72
2022/07/22 00:19:29;;;;;;;11.68;7.75;;;17.80;99.90;;;;;;5267654;28;20028;-71
2022/07/22 00:22:00;;;;;;;10.88;7.20;;;17.90;99.90;;;;;;5267662;28;20042;-73
2022/07/22 00:24:31;;;;;;;7.90;6.68;;;18.00;99.90;;;;;;5267613;28;20123;-72
2022/07/22 00:27:02;;;;;;;8.00;5.88;;;18.00;99.90;;;;;;5267604;28;20149;-72
2022/07/22 00:29:33;;;;;;;7.97;6.47;;;18.00;99.90;;;;;;5267657;28;20024;-71
2022/07/22 00:32:04;;;;;;;8.15;6.28;;;17.90;99.90;;;;;;5263922;28;20024;-72
2022/07/22 00:34:35;;;;;;;8.43;6.43;;;17.80;99.90;;;;;;5251596;28;20476;-72
2022/07/22 00:37:06;;;;;;;7.90;6.45;;;17.60;99.90;;;;;;5267348;28;20024;-71
2022/07/22 00:39:37;;;;;;;8.27;5.97;;;17.50;99.90;;;;;;5267990;28;20042;-72
2022/07/22 00:42:08;;;;;;;9.88;5.95;;;17.80;99.90;;;;;;5271497;28;20052;-72
2022/07/22 00:44:39;;;;;;;8.27;5.80;;;17.80;99.90;;;;;;5271612;28;20499;-72
2022/07/22 00:47:10;;;;;;;7.18;5.72;;;17.70;99.90;;;;;;5271452;28;20058;-72
2022/07/22 00:49:41;;;;;;;7.97;6.68;;;17.40;99.90;;;;;;5271497;28;20028;-72
2022/07/22 00:52:12;;;;;;;9.95;6.15;;;17.50;99.90;;;;;;5271304;28;20027;-72
2022/07/22 00:54:43;;;;;;;9.57;6.78;;;17.10;99.90;;;;;;5271452;28;20417;-72
2022/07/22 00:57:14;;;;;;;9.20;6.53;;;17.20;99.90;;;;;;5271054;28;20020;-72
2022/07/22 00:59:45;;;;;;;8.60;6.38;;;17.10;99.90;;;;;;5271340;28;20028;-72
2022/07/22 01:02:16;;;;;;;7.95;6.88;;;17.30;99.90;;;;;;5271112;28;20027;-70
2022/07/22 01:04:47;;;;;;;6.70;5.80;;;17.40;99.90;;;;;;5271126;28;20430;-70
2022/07/22 01:07:17;;;;;;;8.73;6.28;;;17.40;99.90;;;;;;5270917;28;20051;-72
2022/07/22 01:09:48;;;;;;;10.55;6.55;;;17.20;99.90;;;;;;5271005;28;20526;-72
2022/07/22 01:12:19;;;;;;;8.45;5.90;;;17.00;99.90;;;;;;5270835;28;20016;-71
2022/07/22 01:14:50;;;;;;;8.05;6.03;;;17.30;99.90;;;;;;5269857;28;20051;-71
2022/07/22 01:17:21;;;;;;;8.10;5.78;;;17.30;99.90;;;;;;5270747;28;20024;-72
2022/07/22 01:19:52;;;;;;;10.05;6.15;;;17.30;99.90;;;;;;5252684;28;20149;-72
2022/07/22 01:22:23;;;;;;;7.88;6.40;;;17.00;99.90;;;;;;5270759;28;20102;-73
2022/07/22 01:24:54;;;;;;;10.57;6.68;;;17.00;99.90;;;;;;5270664;28;20467;-71
2022/07/22 01:27:25;;;;;;;8.40;6.20;;;17.00;99.90;;;;;;5270708;28;20020;-72
2022/07/22 01:29:56;;;;;;;7.05;5.97;;;17.20;99.90;;;;;;5270807;28;20039;-72
2022/07/22 01:32:27;;;;;;;7.95;5.80;;;17.40;99.90;;;;;;5270703;28;20020;-71
2022/07/22 01:34:58;;;;;;;8.32;5.85;;;17.40;99.90;;;;;;5270827;28;20024;-72
2022/07/22 01:37:29;;;;;;;7.20;5.70;;;17.10;99.90;;;;;;5270507;28;20039;-72
2022/07/22 01:40:00;;;;;;;11.82;6.55;;;17.10;99.90;;;;;;5270701;28;20422;-71
2022/07/22 01:42:30;;;;;;;7.57;5.70;;;16.90;99.90;;;;;;5270800;28;20519;-72
2022/07/22 01:45:02;;;;;;;9.40;5.93;;;17.10;99.90;;;;;;5270684;28;20097;-71
2022/07/22 01:47:32;;;;;;;8.00;5.78;;;17.10;99.90;;;;;;5270451;28;20089;-69
2022/07/22 01:50:05;;;;;;;9.80;6.75;;;16.90;99.90;;;;;;5270312;28;20024;-71
2022/07/22 01:52:36;;;;;;;8.35;7.35;;;16.80;99.90;;;;;;5270172;28;20081;-72
2022/07/22 01:55:09;;;;;;;9.20;6.40;;;16.80;99.90;;;;;;5270365;28;20026;-71
2022/07/22 01:57:40;;;;;;;6.20;5.20;;;16.90;99.90;;;;;;5263160;28;20036;-73
2022/07/22 02:00:11;;;;;;;7.90;5.93;;;17.00;99.90;;;;;;5270057;28;20441;-71
2022/07/22 02:02:42;;;;;;;8.23;5.65;;;16.90;99.90;;;;;;5270151;28;20027;-72
2022/07/22 02:05:13;;;;;;;6.82;6.07;;;16.90;99.90;;;;;;5269983;28;20031;-73
2022/07/22 02:07:44;;;;;;;6.95;5.78;;;16.80;99.90;;;;;;5269651;28;20044;-71
2022/07/22 02:10:15;;;;;;;7.30;6.03;;;17.00;99.90;;;;;;5269882;28;20027;-70
2022/07/22 02:12:46;;;;;;;6.47;4.75;;;17.00;99.90;;;;;;5269855;28;20099;-72
2022/07/22 02:15:17;;;;;;;6.18;5.57;;;16.80;99.90;;;;;;5269792;28;20051;-72
2022/07/22 02:17:47;;;;;;;7.65;5.75;;;16.80;99.90;;;;;;5269593;28;20032;-72
2022/07/22 02:20:18;;;;;;;7.13;5.70;;;16.80;99.90;;;;;;5269573;28;20103;-72
2022/07/22 02:22:49;;;;;;;7.68;5.68;;;16.70;99.90;;;;;;5269635;28;20028;-72
2022/07/22 02:25:20;;;;;;;6.60;5.38;;;16.90;99.90;;;;;;5269648;28;20081;-70
2022/07/22 02:27:51;;;;;;;7.75;6.10;;;16.70;99.90;;;;;;5269479;28;20422;-72
2022/07/22 02:30:22;;;;;;;7.25;6.15;;;16.60;99.90;;;;;;5269514;28;20494;-72
2022/07/22 02:32:53;;;;;;;11.10;6.70;;;16.40;99.90;;;;;;5269532;28;20024;-72
2022/07/22 02:35:24;;;;;;;7.57;5.97;;;16.50;99.90;;;;;;5269450;28;20032;-72
2022/07/22 02:37:55;;;;;;;6.97;5.47;;;16.70;99.90;;;;;;5269392;28;20136;-72
2022/07/22 02:40:25;;;;;;;9.48;6.30;;;16.70;99.90;;;;;;5269270;28;20103;-71
2022/07/22 02:42:56;;;;;;;9.82;5.80;;;16.70;99.90;;;;;;5263038;28;20021;-72
2022/07/22 02:45:27;;;;;;;6.72;5.53;;;16.80;99.90;;;;;;5269312;28;20031;-72
2022/07/22 02:47:58;;;;;;;7.90;5.68;;;16.80;99.90;;;;;;5269076;28;20019;-72
2022/07/22 02:50:29;;;;;;;9.07;6.20;;;16.80;99.90;;;;;;5269235;28;20024;-72
2022/07/22 02:53:03;;;;;;;6.85;5.65;;;17.00;99.90;;;;;;5269211;28;20078;-73
2022/07/22 02:55:34;;;;;;;7.25;5.38;;;17.00;99.90;;;;;;5269395;28;20127;-73
2022/07/22 02:58:06;;;;;;;7.65;6.03;;;16.90;99.90;;;;;;5268895;28;20058;-72
2022/07/22 03:00:37;;;;;;;8.43;6.60;;;16.80;99.90;;;;;;5268833;28;20074;-72
2022/07/22 03:03:08;;;;;;;9.38;7.13;;;16.90;99.90;;;;;;5268140;28;20032;-70
2022/07/22 03:05:39;;;;;;;9.38;6.20;;;17.10;99.90;;;;;;5268927;28;20066;-73
2022/07/22 03:08:11;;;;;;;9.80;5.75;;;17.10;99.90;;;;;;5251781;28;20072;-72
2022/07/22 03:10:42;;;;;;;8.90;6.30;;;17.10;99.90;;;;;;5268886;28;20036;-72
2022/07/22 03:13:13;;;;;;;11.98;7.47;;;17.20;99.90;;;;;;5269004;28;20035;-72
2022/07/22 03:15:44;;;;;;;13.15;7.70;;;17.00;99.90;;;;;;5268603;28;20475;-72
2022/07/22 03:18:14;;;;;;;19.63;8.95;;;16.80;99.90;;;;;;5268520;28;20112;-72
2022/07/22 03:20:45;;;;;;;13.70;8.90;;;16.80;99.90;;;;;;5268715;28;20515;-72
2022/07/22 03:23:16;;;;;;;10.45;8.30;;;17.00;99.90;;;;;;5268707;28;20107;-72
2022/07/22 03:25:47;;;;;;;11.10;7.40;;;17.10;99.90;;;;;;5268794;28;20054;-72
2022/07/22 03:28:18;;;;;;;11.45;7.45;;;17.30;99.90;;;;;;5268591;28;20028;-72
2022/07/22 03:30:49;;;;;;;11.57;7.60;;;17.40;99.90;;;;;;5268750;28;20031;-72
2022/07/22 03:33:19;;;;;;;12.05;8.82;;;17.30;99.90;;;;;;5268516;28;20379;-72
2022/07/22 03:35:50;;;;;;;11.73;7.90;;;17.20;99.90;;;;;;5268676;28;20027;-72
2022/07/22 03:38:21;;;;;;;9.90;8.35;;;17.10;99.90;;;;;;5268339;28;20108;-72
2022/07/22 03:40:52;;;;;;;8.85;7.35;;;17.20;99.90;;;;;;5268365;28;20028;-72
2022/07/22 03:43:23;;;;;;;10.57;7.85;;;17.30;99.90;;;;;;5268301;28;20024;-72
2022/07/22 03:45:54;;;;;;;9.75;7.75;;;17.50;99.90;;;;;;5263421;28;20027;-72
2022/07/22 03:48:25;;;;;;;10.00;7.50;;;17.70;99.90;;;;;;5268047;28;20030;-72
2022/07/22 03:50:57;;;;;;;9.63;7.25;;;17.70;99.90;;;;;;5268156;28;20024;-69
2022/07/22 03:53:27;;;;;;;8.88;7.20;;;17.60;99.90;;;;;;5268054;28;20495;-72
2022/07/22 03:55:59;;;;;;;10.70;7.68;;;17.70;99.90;;;;;;5268013;28;20028;-71
2022/07/22 03:58:30;;;;;;;9.93;8.05;;;17.80;99.90;;;;;;5267877;28;20040;-72
2022/07/22 04:01:01;;;;;;;9.88;8.70;;;17.80;99.90;;;;;;5268006;28;20054;-71
2022/07/22 04:03:32;;;;;;;10.82;8.40;;;17.70;99.90;;;;;;5268027;28;20028;-72
2022/07/22 04:06:03;;;;;;;9.52;7.72;;;17.80;99.90;;;;;;5267768;28;20091;-72
2022/07/22 04:08:34;;;;;;;8.13;7.32;;;18.00;99.90;;;;;;5267368;28;20072;-71
2022/07/22 04:11:05;;;;;;;10.13;7.30;;;18.00;99.90;;;;;;5267996;28;20016;-70
2022/07/22 04:13:36;;;;;;;7.70;6.60;;;18.10;99.90;;;;;;5268413;28;20071;-70
2022/07/22 04:16:07;;;;;;;8.18;7.00;;;18.30;99.90;;;;;;5272140;28;20101;-71
2022/07/22 04:18:37;;;;;;;9.27;6.40;;;18.30;99.90;;;;;;5271960;28;20036;-70
2022/07/22 04:21:08;;;;;;;6.97;5.93;;;18.40;99.90;;;;;;5271970;28;20027;-72
2022/07/22 04:23:39;;;;;;;6.55;5.55;;;18.40;99.90;;;;;;5271997;28;20073;-73
2022/07/22 04:26:10;;;;;;;6.82;5.70;;;18.60;99.90;;;;;;5271672;28;20024;-71
2022/07/22 04:28:41;;;;;;;5.32;4.82;;;18.70;99.90;;;;;;5271957;28;20024;-70
2022/07/22 04:31:12;;;;;;;5.65;4.72;;;18.80;99.90;;;;;;5271867;28;20381;-70
2022/07/22 04:33:43;;;;;;;6.45;5.82;;;18.80;99.90;;;;;;5271816;28;20043;-71
2022/07/22 04:36:13;;;;;;;6.80;5.55;;;18.90;99.90;;;;;;5271671;28;20024;-71
2022/07/22 04:38:44;;;;;;;6.63;5.93;;;18.60;99.90;;;;;;5256917;28;20127;-72
2022/07/22 04:41:15;;;;;;;7.40;6.68;;;18.70;99.90;;;;;;5262605;28;20027;-69
2022/07/22 04:43:46;;;;;;;8.00;7.20;;;18.90;99.90;;;;;;5271634;28;20035;-73
2022/07/22 04:46:17;;;;;;;8.35;7.05;;;19.00;99.90;;;;;;5271572;28;20086;-72
2022/07/22 04:48:48;;;;;;;8.90;7.88;;;19.20;99.90;;;;;;5271474;28;20023;-70
2022/07/22 04:51:18;;;;;;;7.57;6.78;;;19.10;99.90;;;;;;5261832;28;20032;-72
2022/07/22 04:53:49;;;;;;;9.25;6.05;;;19.10;99.90;;;;;;5271382;28;20055;-71
2022/07/22 04:56:20;;;;;;;5.78;5.10;;;19.60;99.90;;;;;;5258791;28;20349;-69
2022/07/22 04:58:51;;;;;;;5.63;5.03;;;19.50;99.90;;;;;;5265342;28;20093;-72
2022/07/22 05:01:22;;;;;;;6.78;4.57;;;19.80;99.90;;;;;;5271172;28;20102;-72
2022/07/22 05:03:53;;;;;;;4.93;4.30;;;19.90;99.90;;;;;;5271345;28;20539;-73
2022/07/22 05:06:24;;;;;;;4.32;3.50;;;20.10;99.90;;;;;;5270976;28;20020;-72
2022/07/22 05:08:55;;;;;;;5.95;4.25;;;19.90;99.90;;;;;;5271040;28;20052;-73
2022/07/22 05:11:26;;;;;;;5.15;4.03;;;20.00;99.90;;;;;;5271066;28;20368;-73
2022/07/22 05:13:57;;;;;;;5.10;4.18;;;20.20;99.90;;;;;;5271074;28;20082;-72
2022/07/22 05:16:27;;;;;;;5.07;4.10;;;20.40;99.90;;;;;;5270930;28;20059;-73
2022/07/22 05:18:58;;;;;;;9.23;4.70;;;20.60;99.90;;;;;;5270744;28;20495;-71
2022/07/22 05:21:29;;;;;;;6.35;4.70;;;20.80;99.90;;;;;;5270859;28;20051;-73
2022/07/22 05:24:00;;;;;;;7.90;5.20;;;21.00;99.90;;;;;;5270822;28;20036;-73
2022/07/22 05:26:33;;;;;;;6.07;4.65;;;21.10;99.90;;;;;;5269740;28;20066;-73
2022/07/22 05:29:04;;;;;;;6.40;4.68;;;20.90;99.90;;;;;;5270673;28;20016;-73
2022/07/22 05:31:34;;;;;;;6.38;4.43;;;21.00;99.90;;;;;;5270793;28;20383;-72
2022/07/22 05:34:07;;;;;;;5.78;3.92;;;21.30;99.90;;;;;;5270807;28;20012;-73
2022/07/22 05:36:38;;;;;;;5.32;4.00;;;21.40;99.90;;;;;;5270016;28;20044;-71
2022/07/22 05:39:09;;;;;;;4.07;3.25;;;21.30;99.90;;;;;;5265659;28;20047;-76
2022/07/22 05:41:40;;;;;;;4.75;3.35;;;21.90;99.90;;;;;;5270330;28;20013;-75
2022/07/22 05:44:11;;;;;;;4.28;3.10;;;22.00;99.90;;;;;;5270401;28;20472;-70
2022/07/22 05:46:41;;;;;;;4.18;3.38;;;22.40;99.90;;;;;;5270256;28;20031;-72
2022/07/22 05:49:12;;;;;;;4.35;3.60;;;22.60;99.90;;;;;;5270268;28;20024;-73
2022/07/22 05:51:43;;;;;;;5.07;3.63;;;22.90;99.90;;;;;;5270228;28;20614;-71
2022/07/22 05:54:14;;;;;;;5.22;3.72;;;22.50;99.90;;;;;;5269811;28;20021;-69
2022/07/22 05:56:45;;;;;;;4.40;3.25;;;22.60;99.90;;;;;;5269924;28;20027;-73
2022/07/22 05:59:16;;;;;;;10.98;3.45;;;23.00;99.90;;;;;;5269680;28;20043;-71
2022/07/22 06:01:47;;;;;;;5.35;3.53;;;23.30;99.90;;;;;;5268997;28;20012;-73
2022/07/22 06:04:18;;;;;;;6.25;3.05;;;23.60;99.90;;;;;;5269612;28;20024;-72
2022/07/22 06:06:48;;;;;;;6.43;3.03;;;23.70;99.90;;;;;;5264131;28;20103;-73
2022/07/22 06:09:21;;;;;;;5.28;3.20;;;23.80;99.90;;;;;;5269710;28;20063;-74
2022/07/22 06:11:52;;;;;;;4.68;3.25;;;23.80;99.90;;;;;;5269463;28;20023;-73
2022/07/22 06:14:25;;;;;;;4.68;2.70;;;24.00;99.90;;;;;;5269554;28;20471;-71
2022/07/22 06:16:59;;;;;;;5.57;2.80;;;24.30;99.90;;;;;;5269698;28;20012;-73
2022/07/22 06:19:30;;;;;;;5.22;2.42;;;23.90;99.90;;;;;;5269445;28;20458;-70
2022/07/22 06:22:01;;;;;;;4.45;2.55;;;24.40;99.90;;;;;;5267427;28;20047;-72
2022/07/22 06:24:32;;;;;;;5.40;2.60;;;24.40;99.90;;;;;;5269117;28;20047;-68
2022/07/22 06:27:03;;;;;;;6.40;2.75;;;24.50;99.90;;;;;;5269242;28;20080;-72
2022/07/22 06:29:33;;;;;;;7.38;2.78;;;24.70;99.90;;;;;;5273459;28;20107;-73
2022/07/22 06:32:05;;;;;;;6.63;2.95;;;24.00;99.90;;;;;;5256614;28;20024;-72
2022/07/22 06:34:36;;;;;;;4.72;2.75;;;24.50;99.90;;;;;;5265653;28;20024;-72
2022/07/22 06:37:08;;;;;;;6.78;2.75;;;25.10;99.90;;;;;;5268245;28;20036;-69
2022/07/22 06:39:39;;;;;;;5.70;2.78;;;25.30;99.90;;;;;;5268906;28;20036;-71
2022/07/22 06:42:09;;;;;;;6.75;2.47;;;25.10;99.90;;;;;;5269027;28;20020;-71
2022/07/22 06:44:42;;;;;;;7.30;2.80;;;25.10;99.90;;;;;;5269076;28;20034;-72
2022/07/22 06:47:15;;;;;;;6.97;2.47;;;25.20;99.90;;;;;;5268675;28;20020;-72
2022/07/22 06:49:47;;;;;;;7.25;2.35;;;25.60;99.90;;;;;;5269164;28;20030;-71
2022/07/22 06:52:17;;;;;;;4.20;2.20;;;25.90;99.90;;;;;;5250755;28;20016;-71
2022/07/22 06:54:49;;;;;;;3.50;2.10;;;25.60;99.90;;;;;;5269069;28;20030;-71
2022/07/22 06:57:19;;;;;;;4.13;2.38;;;26.10;99.90;;;;;;5268772;28;20020;-70
2022/07/22 06:59:50;;;;;;;7.63;2.70;;;26.30;99.90;;;;;;5250556;28;20538;-71
2022/07/22 07:02:21;;;;;;;4.53;2.17;;;25.70;99.90;;;;;;5268852;28;20028;-69
2022/07/22 07:04:52;;;;;;;3.22;2.35;;;26.00;99.90;;;;;;5268918;28;20024;-73
2022/07/22 07:07:23;;;;;;;6.20;2.00;;;26.10;99.90;;;;;;5268479;28;20048;-72
2022/07/22 07:09:54;;;;;;;5.78;1.95;;;26.50;99.90;;;;;;5268861;28;20368;-73
2022/07/22 07:12:24;;;;;;;8.68;2.15;;;26.70;99.90;;;;;;5266740;28;20020;-73
2022/07/22 07:14:55;;;;;;;5.03;1.80;;;26.80;99.90;;;;;;5268807;28;20036;-72
2022/07/22 07:17:26;;;;;;;5.72;1.80;;;26.50;99.90;;;;;;5268090;28;20043;-73
2022/07/22 07:19:57;;;;;;;5.05;2.15;;;26.70;99.90;;;;;;5268601;28;20039;-73
2022/07/22 07:22:28;;;;;;;7.97;2.15;;;26.30;99.90;;;;;;5268664;28;20459;-73
2022/07/22 07:25:04;;;;;;;6.15;1.95;;;26.80;99.90;;;;;;5268639;28;20475;-73
2022/07/22 07:27:36;;;;;;;8.70;2.10;;;26.50;99.90;;;;;;5255883;28;20785;-70
2022/07/22 07:30:11;;;;;;;4.93;2.00;;;27.10;99.90;;;;;;5263326;28;20078;-71
2022/07/22 07:32:42;;;;;;;3.20;1.88;;;27.30;99.90;;;;;;5267877;28;20054;-72
2022/07/22 07:35:12;;;;;;;5.47;1.90;;;27.40;99.90;;;;;;5268394;28;20024;-74
2022/07/22 07:37:43;;;;;;;4.97;1.90;;;27.40;99.90;;;;;;5268094;28;20093;-74
2022/07/22 07:40:15;;;;;;;4.43;1.70;;;27.40;99.90;;;;;;5268127;28;20429;-73
2022/07/22 07:42:46;;;;;;;12.80;2.25;;;27.50;99.90;;;;;;5268254;28;20012;-72
2022/07/22 07:45:17;;;;;;;9.27;2.00;;;27.40;99.90;;;;;;5268295;28;20028;-72
2022/07/22 07:47:53;;;;;;;7.22;1.70;;;27.60;99.90;;;;;;5268136;28;20028;-72
2022/07/22 07:50:25;;;;;;;10.18;1.88;;;27.20;99.90;;;;;;5267779;28;20028;-69
2022/07/22 07:52:56;;;;;;;5.68;2.03;;;27.80;99.90;;;;;;5268246;28;20020;-70
2022/07/22 07:55:27;;;;;;;3.67;1.70;;;27.40;99.90;;;;;;5268045;28;20747;-72
2022/07/22 07:57:58;;;;;;;5.65;2.13;;;28.00;99.90;;;;;;5268025;28;20078;-70
2022/07/22 08:00:32;;;;;;;13.32;2.63;;;28.00;99.90;;;;;;5267531;28;20486;-72
2022/07/22 08:03:03;;;;;;;7.45;2.05;;;28.20;99.90;;;;;;5267982;28;20024;-70
2022/07/22 08:05:34;;;;;;;5.88;1.77;;;28.20;99.90;;;;;;5267973;28;20016;-69
2022/07/22 08:08:06;;;;;;;4.82;1.73;;;28.20;99.90;;;;;;5267863;28;20131;-72
2022/07/22 08:10:39;;;;;;;2.35;1.80;;;28.20;99.90;;;;;;5267901;28;20056;-73
2022/07/22 08:13:11;;;;;;;3.03;1.88;;;28.40;99.90;;;;;;5249734;28;20047;-71
2022/07/22 08:15:42;;;;;;;3.53;1.95;;;28.20;99.90;;;;;;5267702;28;20028;-72
2022/07/22 08:18:13;;;;;;;6.90;1.67;;;28.50;99.90;;;;;;5264815;28;20413;-73
2022/07/22 08:20:44;;;;;;;7.38;2.10;;;28.30;99.90;;;;;;5268044;28;20027;-72
2022/07/22 08:23:15;;;;;;;14.50;1.90;;;28.30;99.90;;;;;;5249866;28;20027;-73
2022/07/22 08:25:47;;;;;;;11.80;2.40;;;28.40;99.90;;;;;;5267873;28;20103;-73
2022/07/22 08:28:18;;;;;;;5.30;2.00;;;28.50;99.90;;;;;;5249402;28;20432;-73
2022/07/22 08:30:49;;;;;;;8.35;2.22;;;29.10;99.90;;;;;;5268688;28;20032;-73
2022/07/22 08:33:20;;;;;;;7.68;2.10;;;28.80;99.90;;;;;;5267837;28;20113;-71
2022/07/22 08:35:51;;;;;;;6.63;2.47;;;28.80;99.90;;;;;;5267979;28;20039;-71
2022/07/22 08:38:22;;;;;;;5.20;2.15;;;28.50;99.90;;;;;;5267647;28;20052;-69
2022/07/22 08:40:56;;;;;;;11.90;2.70;;;29.00;99.90;;;;;;5267648;28;20028;-73
2022/07/22 08:43:27;;;;;;;7.43;2.33;;;28.80;99.90;;;;;;5261444;28;20047;-71
2022/07/22 08:45:59;;;;;;;4.38;2.17;;;29.10;99.90;;;;;;5267314;28;20020;-71
2022/07/22 08:48:30;;;;;;;8.73;2.40;;;29.30;99.90;;;;;;5267598;28;20368;-73
2022/07/22 08:51:01;;;;;;;5.55;2.42;;;29.50;99.90;;;;;;5265285;28;20027;-72
2022/07/22 08:53:32;;;;;;;5.18;2.28;;;29.10;99.90;;;;;;5267496;28;20071;-70
2022/07/22 08:56:03;;;;;;;7.32;2.55;;;29.50;99.90;;;;;;5267432;28;20020;-69
2022/07/22 08:58:34;;;;;;;8.35;2.45;;;29.20;99.90;;;;;;5249454;28;20102;-70
2022/07/22 09:01:10;;;;;;;10.98;2.60;;;28.90;99.90;;;;;;5267359;28;20073;-71
2022/07/22 09:03:49;;;;;;;6.20;2.03;;;29.20;99.90;;;;;;5271365;28;20476;-69
2022/07/22 09:06:20;;;;;;;;;;;29.70;99.90;;;;;;5271769;28;20073;-71
2022/07/22 09:09:03;;;;;;;9.60;2.55;;;29.70;99.90;;;;;;5271080;28;19924;-69
2022/07/22 09:11:34;;;;;;;8.00;2.17;;;29.60;99.90;;;;;;5253308;28;20450;-71
2022/07/22 09:14:05;;;;;;;6.53;2.38;;;30.10;99.90;;;;;;5271270;28;20013;-71
2022/07/22 09:16:45;;;;;;;8.50;2.22;;;29.80;99.90;;;;;;5271165;28;20032;-69
2022/07/22 09:19:16;;;;;;;9.55;2.42;;;30.00;99.90;;;;;;5270244;28;20032;-69
2022/07/22 09:21:49;;;;;;;5.65;2.58;;;30.00;99.90;;;;;;5271275;28;20463;-71
2022/07/22 09:24:28;;;;;;;8.90;2.08;;;30.20;99.90;;;;;;5269947;28;20020;-71
2022/07/22 09:26:59;;;;;;;;;;;30.50;99.90;;;;;;5253144;28;20835;-72
2022/07/22 09:29:30;;;;;;;3.33;2.00;;;30.10;99.90;;;;;;5270969;28;19911;-70
2022/07/22 09:32:01;;;;;;;5.80;2.63;;;29.80;99.90;;;;;;5271044;28;20081;-72
2022/07/22 09:34:34;;;;;;;9.55;2.30;;;30.40;99.90;;;;;;5270967;28;20016;-72
2022/07/22 09:37:04;;;;;;;8.63;2.50;;;30.50;99.90;;;;;;5270544;28;20088;-72
2022/07/22 09:39:35;;;;;;;6.90;2.15;;;30.40;99.90;;;;;;5270819;28;20051;-71
2022/07/22 09:42:07;;;;;;;6.38;2.25;;;29.80;99.90;;;;;;5270863;28;20020;-70
2022/07/22 09:44:38;;;;;;;4.70;2.15;;;30.40;99.90;;;;;;5270714;28;20039;-72
2022/07/22 09:47:28;;;;;;;9.10;1.98;;;31.00;99.90;;;;;;5270656;28;20095;-70
2022/07/22 09:49:58;;;;;;;5.50;2.30;;;30.90;99.90;;;;;;5270657;28;20364;-72
2022/07/22 09:52:29;;;;;;;6.57;2.40;;;30.50;99.90;;;;;;5270701;28;20032;-72
2022/07/22 09:55:01;;;;;;;6.13;2.75;;;29.90;99.90;;;;;;5270510;28;20023;-72
2022/07/22 09:57:32;;;;;;;4.53;1.95;;;30.00;99.90;;;;;;5270340;28;20115;-68
2022/07/22 10:00:06;;;;;;;11.30;2.10;;;31.00;99.90;;;;;;5270385;28;20103;-72
2022/07/22 10:02:57;;;;;;;7.03;2.15;;;30.40;99.90;;;;;;5270424;28;20027;-71
2022/07/22 10:05:31;;;;;;;6.57;2.33;;;30.90;99.90;;;;;;5270495;28;20036;-72
2022/07/22 10:08:03;;;;;;;9.35;2.72;;;30.70;99.90;;;;;;5270088;28;20510;-69
2022/07/22 10:10:37;;;;;;;9.30;2.63;;;30.90;99.90;;;;;;5270385;28;20032;-71
2022/07/22 10:13:08;;;;;;;9.63;2.47;;;30.30;99.90;;;;;;5269961;28;20024;-69
2022/07/22 10:15:39;;;;;;;4.85;2.60;;;30.40;99.90;;;;;;5270138;28;20519;-72
2022/07/22 10:18:16;;;;;;;8.68;2.00;;;30.80;99.90;;;;;;5269901;28;20103;-69
2022/07/22 10:20:47;;;;;;;13.70;2.55;;;31.10;99.90;;;;;;5269975;28;20078;-73
2022/07/22 10:23:18;;;;;;;10.13;2.53;;;30.80;99.90;;;;;;5270002;28;20016;-72
2022/07/22 10:25:56;;;;;;;10.88;2.28;;;30.10;99.90;;;;;;5269905;28;20054;-70
2022/07/22 10:28:33;;;;;;;7.10;2.30;;;31.10;99.90;;;;;;5269914;28;20032;-72
2022/07/22 10:31:16;;;;;;;5.15;2.10;;;31.20;99.90;;;;;;5269835;28;20028;-69
2022/07/22 10:33:54;;;;;;;5.07;2.00;;;31.30;99.90;;;;;;5269838;28;20042;-68
2022/07/22 10:36:42;;;;;;;10.50;2.25;;;31.10;99.90;;;;;;5269721;28;20042;-72
2022/07/22 10:39:14;;;;;;;8.23;2.35;;;31.00;99.90;;;;;;5269602;28;20040;-69
2022/07/22 10:41:45;;;;;;;9.07;2.63;;;30.80;99.90;;;;;;5269752;28;20088;-70
2022/07/22 10:44:48;;;;;;;9.93;2.33;;;30.90;99.90;;;;;;5269586;28;20124;-68
2022/07/22 10:47:52;;;;;;;8.88;2.75;;;30.40;99.90;;;;;;5269591;28;20024;-72
2022/07/22 10:50:35;;;;;;;8.00;2.15;;;30.10;99.90;;;;;;5269525;28;20116;-72
2022/07/22 10:53:12;;;;;;;10.60;3.08;;;30.90;99.90;;;;;;5251325;28;20475;-69
2022/07/22 10:56:00;;;;;;;9.35;2.13;;;31.00;99.90;;;;;;5269416;28;20026;-70
2022/07/22 10:58:34;;;;;;;10.48;2.53;;;31.00;99.90;;;;;;5269342;28;20040;-71
2022/07/22 11:01:08;;;;;;;15.63;2.80;;;31.20;99.90;;;;;;5269187;28;20466;-73
2022/07/22 11:03:41;;;;;;;8.73;2.60;;;31.20;99.90;;;;;;5269388;28;20475;-72
2022/07/22 11:06:22;;;;;;;7.60;2.75;;;31.50;99.90;;;;;;5269185;28;20050;-69
2022/07/22 11:08:59;;;;;;;13.77;2.55;;;31.10;99.90;;;;;;5268940;28;20055;-70
2022/07/22 11:11:43;;;;;;;8.88;2.45;;;31.40;99.90;;;;;;5269234;28;20020;-72
2022/07/22 11:14:30;;;;;;;3.72;2.10;;;30.70;99.90;;;;;;5269066;28;20047;-72
2022/07/22 11:17:07;;;;;;;8.10;2.50;;;30.40;99.90;;;;;;5268916;28;20025;-72
2022/07/22 11:19:39;;;;;;;9.25;2.42;;;31.20;99.90;;;;;;5268778;28;20036;-71
2022/07/22 11:22:12;;;;;;;4.57;2.20;;;31.40;99.90;;;;;;5268904;28;20081;-72
2022/07/22 11:24:49;;;;;;;7.28;2.20;;;30.60;99.90;;;;;;5268293;28;20028;-72
2022/07/22 11:27:21;;;;;;;9.85;2.50;;;31.30;99.90;;;;;;5268647;28;20121;-69
2022/07/22 11:29:54;;;;;;;7.70;2.30;;;31.30;99.90;;;;;;5268872;28;20027;-73
2022/07/22 11:32:27;;;;;;;5.75;2.30;;;31.70;99.90;;;;;;5268678;28;20028;-72
2022/07/22 11:34:59;;;;;;;11.07;2.00;;;31.50;99.90;;;;;;5268660;28;20043;-72
2022/07/22 11:37:30;;;;;;;6.82;2.05;;;31.40;99.90;;;;;;5250247;28;20032;-73
2022/07/22 11:40:05;;;;;;;4.85;2.33;;;31.60;99.90;;;;;;5268662;28;20024;-72
2022/07/22 11:42:36;;;;;;;5.70;2.03;;;31.40;99.90;;;;;;5268684;28;20020;-68
2022/07/22 11:45:07;;;;;;;3.63;1.90;;;31.30;99.90;;;;;;5268577;28;20028;-72
2022/07/22 11:47:49;;;;;;;4.40;2.03;;;31.90;99.90;;;;;;5268376;28;20464;-72
2022/07/22 11:50:33;;;;;;;5.20;2.20;;;31.40;99.90;;;;;;5268521;28;20081;-71
2022/07/22 11:53:05;;;;;;;5.00;1.92;;;31.50;99.90;;;;;;5268590;28;20056;-72
2022/07/22 11:55:35;;;;;;;7.25;2.30;;;31.90;99.90;;;;;;5268431;28;20438;-70
2022/07/22 11:58:06;;;;;;;4.05;2.15;;;31.30;96.10;;;;;;5268573;28;20028;-69
2022/07/22 12:00:38;;;;;;;6.75;2.15;;;31.60;99.90;;;;;;5268320;28;20031;-70
2022/07/22 12:03:09;;;;;;;8.95;2.20;;;32.30;99.90;;;;;;5268428;28;20027;-72
2022/07/22 12:05:40;;;;;;;9.57;2.75;;;31.70;99.90;;;;;;5268343;28;20020;-72
2022/07/22 12:08:11;;;;;;;6.47;2.05;;;31.60;99.90;;;;;;5268091;28;20036;-72
2022/07/22 12:10:43;;;;;;;4.57;2.28;;;31.10;99.90;;;;;;5268362;28;20039;-71
2022/07/22 12:13:14;;;;;;;7.30;2.17;;;32.00;99.90;;;;;;5268463;28;20510;-69
2022/07/22 12:15:44;;;;;;;9.43;2.20;;;31.50;99.90;;;;;;5268297;28;20039;-72
2022/07/22 12:18:21;;;;;;;6.38;2.55;;;31.60;99.90;;;;;;5250110;28;20067;-72
2022/07/22 12:20:54;;;;;;;7.15;2.25;;;31.20;99.90;;;;;;5268230;28;20028;-71
2022/07/22 12:23:26;;;;;;;9.10;2.17;;;31.00;99.90;;;;;;5268282;28;20051;-72
2022/07/22 12:26:00;;;;;;;9.70;2.30;;;31.00;95.70;;;;;;5268354;28;20025;-68
2022/07/22 12:28:31;;;;;;;4.65;2.33;;;31.40;99.90;;;;;;5268435;28;20473;-71
2022/07/22 12:31:02;;;;;;;5.55;1.98;;;31.60;99.90;;;;;;5249984;28;20023;-71
2022/07/22 12:33:33;;;;;;;7.28;2.20;;;31.10;99.90;;;;;;5268360;28;20028;-73
2022/07/22 12:36:06;;;;;;;5.97;2.00;;;31.30;96.40;;;;;;5271321;28;20069;-69
2022/07/22 12:38:37;;;;;;;5.18;2.33;;;31.30;95.30;;;;;;5272345;28;20048;-72
2022/07/22 12:41:24;;;;;;;3.53;2.20;;;31.20;99.80;;;;;;5254102;28;20020;-71
2022/07/22 12:43:56;;;;;;;4.90;1.98;;;31.00;97.00;;;;;;5272221;28;20031;-72
2022/07/22 12:46:26;;;;;;;5.75;1.70;;;31.50;99.90;;;;;;5272272;28;20020;-72
2022/07/22 12:49:00;;;;;;;9.00;1.95;;;30.80;99.50;;;;;;5272306;28;20081;-72
2022/07/22 12:51:31;;;;;;;10.63;2.47;;;31.20;99.90;;;;;;5272233;28;20439;-72
2022/07/22 12:54:02;;;;;;;6.47;2.03;;;31.60;97.90;;;;;;5271939;28;20063;-71
2022/07/22 12:56:33;;;;;;;6.35;2.05;;;31.50;95.90;;;;;;5271766;28;20460;-72
2022/07/22 12:59:04;;;;;;;7.43;2.30;;;31.30;98.50;;;;;;5271540;28;20032;-69
2022/07/22 13:01:35;;;;;;;5.70;2.00;;;30.60;96.20;;;;;;5271803;28;20024;-71
2022/07/22 13:04:05;;;;;;;9.35;1.95;;;31.30;96.30;;;;;;5271666;28;20021;-70
2022/07/22 13:06:36;;;;;;;9.60;2.10;;;30.90;92.20;;;;;;5271561;28;20024;-72
2022/07/22 13:09:07;;;;;;;10.18;1.98;;;31.50;93.50;;;;;;5271388;28;20051;-71
2022/07/22 13:11:43;;;;;;;10.13;2.03;;;31.60;94.80;;;;;;5271443;28;20107;-69